sensor_id;sensor_type;location;lat;lon;timestamp;temperature;humidity
6724;DHT22;3399;52.530;13.304;2023-05-14T00:00:52;14.30;96.40
6724;DHT22;3399;52.530;13.304;2023-05-14T00:03:18;14.20;96.60
6724;DHT22;3399;52.530;13.304;2023-05-14T00:05:43;14.20;97.30
6724;DHT22;3399;52.530;13.304;2023-05-14T00:08:09;14.20;98.90
6724;DHT22;3399;52.530;13.304;2023-05-14T00:10:34;14.20;99.90
6724;DHT22;3399;52.530;13.304;2023-05-14T00:13:00;14.10;99.90
6724;DHT22;3399;52.530;13.304;2023-05-14T00:15:25;14.10;99.90
6724;DHT22;3399;52.530;13.304;2023-05-14T00:17:51;14.10;99.90
6724;DHT22;3399;52.530;13.304;2023-05-14T00:20:16;14.00;99.90
6724;DHT22;3399;52.530;13.304;2023-05-14T00:22:41;14.10;99.90
6724;DHT22;3399;52.530;13.304;2023-05-14T00:25:08;14.00;99.90
6724;DHT22;3399;52.530;13.304;2023-05-14T00:27:34;13.90;99.90
6724;DHT22;3399;52.530;13.304;2023-05-14T00:30:04;13.90;99.90
6724;DHT22;3399;52.530;13.304;2023-05-14T00:32:31;13.90;99.90
6724;DHT22;3399;52.530;13.304;2023-05-14T00:34:56;13.90;99.90
6724;DHT22;3399;52.530;13.304;2023-05-14T00:37:22;13.90;99.90
6724;DHT22;3399;52.530;13.304;2023-05-14T00:39:47;13.90;99.90
6724;DHT22;3399;52.530;13.304;2023-05-14T00:42:13;13.90;99.90
6724;DHT22;3399;52.530;13.304;2023-05-14T00:44:38;13.90;99.90
6724;DHT22;3399;52.530;13.304;2023-05-14T00:47:04;13.80;99.90
6724;DHT22;3399;52.530;13.304;2023-05-14T00:49:30;13.80;99.90
6724;DHT22;3399;52.530;13.304;2023-05-14T00:51:56;13.70;99.90
6724;DHT22;3399;52.530;13.304;2023-05-14T00:54:24;13.60;99.90
6724;DHT22;3399;52.530;13.304;2023-05-14T00:56:50;13.60;99.90
6724;DHT22;3399;52.530;13.304;2023-05-14T00:59:16;13.60;99.90
6724;DHT22;3399;52.530;13.304;2023-05-14T01:01:41;13.70;99.90
6724;DHT22;3399;52.530;13.304;2023-05-14T01:04:08;13.70;99.90
6724;DHT22;3399;52.530;13.304;2023-05-14T01:06:44;13.70;99.90
6724;DHT22;3399;52.530;13.304;2023-05-14T01:12:07;13.70;99.90
6724;DHT22;3399;52.530;13.304;2023-05-14T01:14:44;13.70;99.90
6724;DHT22;3399;52.530;13.304;2023-05-14T01:17:13;13.50;99.90
6724;DHT22;3399;52.530;13.304;2023-05-14T01:19:42;13.40;99.90
6724;DHT22;3399;52.530;13.304;2023-05-14T01:22:08;13.40;99.90
6724;DHT22;3399;52.530;13.304;2023-05-14T01:24:34;13.40;99.90
6724;DHT22;3399;52.530;13.304;2023-05-14T01:27:30;13.50;99.90
6724;DHT22;3399;52.530;13.304;2023-05-14T01:30:15;13.40;99.90
6724;DHT22;3399;52.530;13.304;2023-05-14T01:32:47;13.40;99.90
6724;DHT22;3399;52.530;13.304;2023-05-14T01:35:15;13.40;99.90
6724;DHT22;3399;52.530;13.304;2023-05-14T01:37:42;13.40;99.90
6724;DHT22;3399;52.530;13.304;2023-05-14T01:40:09;13.40;99.90
6724;DHT22;3399;52.530;13.304;2023-05-14T01:42:36;13.40;99.90
6724;DHT22;3399;52.530;13.304;2023-05-14T01:45:02;13.20;99.90
6724;DHT22;3399;52.530;13.304;2023-05-14T01:47:27;13.20;99.90
6724;DHT22;3399;52.530;13.304;2023-05-14T01:49:53;13.20;99.90
6724;DHT22;3399;52.530;13.304;2023-05-14T01:52:19;13.20;99.90
6724;DHT22;3399;52.530;13.304;2023-05-14T01:54:46;13.10;99.90
6724;DHT22;3399;52.530;13.304;2023-05-14T01:57:12;13.00;99.90
6724;DHT22;3399;52.530;13.304;2023-05-14T01:59:37;13.00;99.90
6724;DHT22;3399;52.530;13.304;2023-05-14T02:02:03;13.00;99.90
6724;DHT22;3399;52.530;13.304;2023-05-14T02:04:28;12.90;99.90
6724;DHT22;3399;52.530;13.304;2023-05-14T02:06:54;12.90;99.90
6724;DHT22;3399;52.530;13.304;2023-05-14T02:09:19;13.00;99.90
6724;DHT22;3399;52.530;13.304;2023-05-14T02:11:45;13.10;99.90
6724;DHT22;3399;52.530;13.304;2023-05-14T02:14:10;13.00;99.90
6724;DHT22;3399;52.530;13.304;2023-05-14T02:16:36;13.10;99.90
6724;DHT22;3399;52.530;13.304;2023-05-14T02:19:01;13.10;99.90
6724;DHT22;3399;52.530;13.304;2023-05-14T02:21:27;13.10;99.90
6724;DHT22;3399;52.530;13.304;2023-05-14T02:23:52;13.00;99.90
6724;DHT22;3399;52.530;13.304;2023-05-14T02:26:18;13.00;99.90
6724;DHT22;3399;52.530;13.304;2023-05-14T02:28:44;13.20;99.90
6724;DHT22;3399;52.530;13.304;2023-05-14T02:31:10;13.10;99.90
6724;DHT22;3399;52.530;13.304;2023-05-14T02:33:35;13.00;99.90
6724;DHT22;3399;52.530;13.304;2023-05-14T02:36:01;12.90;99.90
6724;DHT22;3399;52.530;13.304;2023-05-14T02:38:26;13.00;99.90
6724;DHT22;3399;52.530;13.304;2023-05-14T02:40:52;13.10;99.90
6724;DHT22;3399;52.530;13.304;2023-05-14T02:43:17;13.20;99.90
6724;DHT22;3399;52.530;13.304;2023-05-14T02:45:43;13.20;99.90
6724;DHT22;3399;52.530;13.304;2023-05-14T02:48:08;13.20;99.90
6724;DHT22;3399;52.530;13.304;2023-05-14T02:50:34;13.30;99.90
6724;DHT22;3399;52.530;13.304;2023-05-14T02:52:59;13.30;99.90
6724;DHT22;3399;52.530;13.304;2023-05-14T02:55:26;13.40;99.90
6724;DHT22;3399;52.530;13.304;2023-05-14T02:57:51;13.40;99.90
6724;DHT22;3399;52.530;13.304;2023-05-14T03:00:18;13.50;99.90
6724;DHT22;3399;52.530;13.304;2023-05-14T03:02:43;13.30;99.90
6724;DHT22;3399;52.530;13.304;2023-05-14T03:05:09;13.30;99.90
6724;DHT22;3399;52.530;13.304;2023-05-14T03:07:35;13.40;99.90
6724;DHT22;3399;52.530;13.304;2023-05-14T03:10:00;13.50;99.90
6724;DHT22;3399;52.530;13.304;2023-05-14T03:12:26;13.60;99.90
6724;DHT22;3399;52.530;13.304;2023-05-14T03:14:51;13.60;99.90
6724;DHT22;3399;52.530;13.304;2023-05-14T03:17:17;13.60;99.90
6724;DHT22;3399;52.530;13.304;2023-05-14T03:19:42;13.60;99.90
6724;DHT22;3399;52.530;13.304;2023-05-14T03:22:08;13.60;99.90
6724;DHT22;3399;52.530;13.304;2023-05-14T03:24:33;13.60;99.90
6724;DHT22;3399;52.530;13.304;2023-05-14T03:26:59;13.60;99.90
6724;DHT22;3399;52.530;13.304;2023-05-14T03:29:24;13.70;99.90
6724;DHT22;3399;52.530;13.304;2023-05-14T03:31:50;13.60;99.90
6724;DHT22;3399;52.530;13.304;2023-05-14T03:34:15;13.60;99.90
6724;DHT22;3399;52.530;13.304;2023-05-14T03:36:41;13.60;99.90
6724;DHT22;3399;52.530;13.304;2023-05-14T03:39:07;13.70;99.90
6724;DHT22;3399;52.530;13.304;2023-05-14T03:41:34;13.70;99.90
6724;DHT22;3399;52.530;13.304;2023-05-14T03:44:00;13.60;99.90
6724;DHT22;3399;52.530;13.304;2023-05-14T03:46:25;13.60;99.90
6724;DHT22;3399;52.530;13.304;2023-05-14T03:48:51;13.60;99.90
6724;DHT22;3399;52.530;13.304;2023-05-14T03:51:16;13.60;99.90
6724;DHT22;3399;52.530;13.304;2023-05-14T03:53:42;13.70;99.90
6724;DHT22;3399;52.530;13.304;2023-05-14T03:56:07;13.60;99.90
6724;DHT22;3399;52.530;13.304;2023-05-14T03:58:33;13.60;99.90
6724;DHT22;3399;52.530;13.304;2023-05-14T04:00:58;13.50;99.90
6724;DHT22;3399;52.530;13.304;2023-05-14T04:03:24;13.60;99.90
6724;DHT22;3399;52.530;13.304;2023-05-14T04:05:50;13.60;99.90
6724;DHT22;3399;52.530;13.304;2023-05-14T04:08:15;13.50;99.90
6724;DHT22;3399;52.530;13.304;2023-05-14T04:10:41;13.50;99.90
6724;DHT22;3399;52.530;13.304;2023-05-14T04:13:07;13.60;99.90
6724;DHT22;3399;52.530;13.304;2023-05-14T04:15:33;13.60;99.90
6724;DHT22;3399;52.530;13.304;2023-05-14T04:18:00;13.60;99.90
6724;DHT22;3399;52.530;13.304;2023-05-14T04:20:25;13.50;99.90
6724;DHT22;3399;52.530;13.304;2023-05-14T04:22:52;13.50;99.90
6724;DHT22;3399;52.530;13.304;2023-05-14T04:25:17;13.50;99.90
6724;DHT22;3399;52.530;13.304;2023-05-14T04:27:43;13.50;99.90
6724;DHT22;3399;52.530;13.304;2023-05-14T04:30:09;13.60;99.90
6724;DHT22;3399;52.530;13.304;2023-05-14T04:32:34;13.50;99.90
6724;DHT22;3399;52.530;13.304;2023-05-14T04:35:01;13.60;99.90
6724;DHT22;3399;52.530;13.304;2023-05-14T04:37:26;13.60;99.90
6724;DHT22;3399;52.530;13.304;2023-05-14T04:39:52;13.50;99.90
6724;DHT22;3399;52.530;13.304;2023-05-14T04:42:17;13.60;99.90
6724;DHT22;3399;52.530;13.304;2023-05-14T04:44:43;13.50;99.90
6724;DHT22;3399;52.530;13.304;2023-05-14T04:47:08;13.50;99.90
6724;DHT22;3399;52.530;13.304;2023-05-14T04:49:34;13.50;99.90
6724;DHT22;3399;52.530;13.304;2023-05-14T04:52:00;13.50;99.90
6724;DHT22;3399;52.530;13.304;2023-05-14T04:54:26;13.50;99.90
6724;DHT22;3399;52.530;13.304;2023-05-14T04:56:51;13.50;99.90
6724;DHT22;3399;52.530;13.304;2023-05-14T04:59:17;13.60;99.90
6724;DHT22;3399;52.530;13.304;2023-05-14T05:01:42;13.60;99.90
6724;DHT22;3399;52.530;13.304;2023-05-14T05:04:08;13.60;99.90
6724;DHT22;3399;52.530;13.304;2023-05-14T05:06:33;13.70;99.90
6724;DHT22;3399;52.530;13.304;2023-05-14T05:08:59;13.80;99.90
6724;DHT22;3399;52.530;13.304;2023-05-14T05:11:24;13.90;99.90
6724;DHT22;3399;52.530;13.304;2023-05-14T05:13:50;13.90;99.90
6724;DHT22;3399;52.530;13.304;2023-05-14T05:16:15;13.90;99.90
6724;DHT22;3399;52.530;13.304;2023-05-14T05:18:41;14.00;99.90
6724;DHT22;3399;52.530;13.304;2023-05-14T05:21:09;14.10;99.90
6724;DHT22;3399;52.530;13.304;2023-05-14T05:23:34;14.20;99.90
6724;DHT22;3399;52.530;13.304;2023-05-14T05:25:59;14.30;99.90
6724;DHT22;3399;52.530;13.304;2023-05-14T05:28:25;14.30;99.90
6724;DHT22;3399;52.530;13.304;2023-05-14T05:30:52;14.40;99.70
6724;DHT22;3399;52.530;13.304;2023-05-14T05:33:17;14.40;99.70
6724;DHT22;3399;52.530;13.304;2023-05-14T05:35:44;14.50;99.20
6724;DHT22;3399;52.530;13.304;2023-05-14T05:38:09;14.60;96.70
6724;DHT22;3399;52.530;13.304;2023-05-14T05:40:34;14.80;95.40
6724;DHT22;3399;52.530;13.304;2023-05-14T05:43:00;15.00;94.40
6724;DHT22;3399;52.530;13.304;2023-05-14T05:45:25;15.10;94.30
6724;DHT22;3399;52.530;13.304;2023-05-14T05:47:51;15.20;93.50
6724;DHT22;3399;52.530;13.304;2023-05-14T05:50:17;15.40;93.10
6724;DHT22;3399;52.530;13.304;2023-05-14T05:52:42;15.40;92.90
6724;DHT22;3399;52.530;13.304;2023-05-14T05:55:08;15.50;92.70
6724;DHT22;3399;52.530;13.304;2023-05-14T05:57:34;15.50;93.00
6724;DHT22;3399;52.530;13.304;2023-05-14T05:59:59;15.60;92.20
6724;DHT22;3399;52.530;13.304;2023-05-14T06:02:25;15.80;91.40
6724;DHT22;3399;52.530;13.304;2023-05-14T06:04:50;15.60;91.20
6724;DHT22;3399;52.530;13.304;2023-05-14T06:07:17;15.50;91.10
6724;DHT22;3399;52.530;13.304;2023-05-14T06:09:42;15.50;90.80
6724;DHT22;3399;52.530;13.304;2023-05-14T06:12:08;15.50;90.70
6724;DHT22;3399;52.530;13.304;2023-05-14T06:14:34;15.50;90.60
6724;DHT22;3399;52.530;13.304;2023-05-14T06:16:59;15.60;90.80
6724;DHT22;3399;52.530;13.304;2023-05-14T06:19:25;15.70;90.20
6724;DHT22;3399;52.530;13.304;2023-05-14T06:21:50;15.80;90.30
6724;DHT22;3399;52.530;13.304;2023-05-14T06:24:16;15.80;90.30
6724;DHT22;3399;52.530;13.304;2023-05-14T06:26:41;15.80;90.30
6724;DHT22;3399;52.530;13.304;2023-05-14T06:29:07;15.80;89.70
6724;DHT22;3399;52.530;13.304;2023-05-14T06:31:32;16.00;88.90
6724;DHT22;3399;52.530;13.304;2023-05-14T06:33:58;16.00;89.90
6724;DHT22;3399;52.530;13.304;2023-05-14T06:36:23;16.00;88.50
6724;DHT22;3399;52.530;13.304;2023-05-14T06:38:49;16.10;88.30
6724;DHT22;3399;52.530;13.304;2023-05-14T06:41:15;16.10;87.90
6724;DHT22;3399;52.530;13.304;2023-05-14T06:43:40;16.20;87.30
6724;DHT22;3399;52.530;13.304;2023-05-14T06:46:06;16.30;87.50
6724;DHT22;3399;52.530;13.304;2023-05-14T06:48:31;16.30;87.40
6724;DHT22;3399;52.530;13.304;2023-05-14T06:50:57;16.50;86.00
6724;DHT22;3399;52.530;13.304;2023-05-14T06:53:22;16.60;86.40
6724;DHT22;3399;52.530;13.304;2023-05-14T06:55:48;16.60;86.70
6724;DHT22;3399;52.530;13.304;2023-05-14T06:58:13;16.70;86.50
6724;DHT22;3399;52.530;13.304;2023-05-14T07:00:41;16.60;85.10
6724;DHT22;3399;52.530;13.304;2023-05-14T07:03:07;16.70;86.60
6724;DHT22;3399;52.530;13.304;2023-05-14T07:05:32;16.90;85.00
6724;DHT22;3399;52.530;13.304;2023-05-14T07:07:58;17.00;85.80
6724;DHT22;3399;52.530;13.304;2023-05-14T07:10:23;16.80;84.70
6724;DHT22;3399;52.530;13.304;2023-05-14T07:12:49;16.80;85.50
6724;DHT22;3399;52.530;13.304;2023-05-14T07:15:15;16.80;83.70
6724;DHT22;3399;52.530;13.304;2023-05-14T07:17:40;16.80;84.70
6724;DHT22;3399;52.530;13.304;2023-05-14T07:20:06;16.90;85.20
6724;DHT22;3399;52.530;13.304;2023-05-14T07:22:31;17.00;84.60
6724;DHT22;3399;52.530;13.304;2023-05-14T07:24:57;16.90;82.90
6724;DHT22;3399;52.530;13.304;2023-05-14T07:27:23;16.80;83.40
6724;DHT22;3399;52.530;13.304;2023-05-14T07:29:49;16.80;84.30
6724;DHT22;3399;52.530;13.304;2023-05-14T07:32:15;17.00;83.70
6724;DHT22;3399;52.530;13.304;2023-05-14T07:34:40;17.20;84.80
6724;DHT22;3399;52.530;13.304;2023-05-14T07:37:06;17.30;85.70
6724;DHT22;3399;52.530;13.304;2023-05-14T07:39:31;17.40;83.40
6724;DHT22;3399;52.530;13.304;2023-05-14T07:41:57;17.20;82.70
6724;DHT22;3399;52.530;13.304;2023-05-14T07:44:22;17.20;82.50
6724;DHT22;3399;52.530;13.304;2023-05-14T07:46:48;17.20;82.80
6724;DHT22;3399;52.530;13.304;2023-05-14T07:49:13;17.40;83.30
6724;DHT22;3399;52.530;13.304;2023-05-14T07:51:39;17.40;83.30
6724;DHT22;3399;52.530;13.304;2023-05-14T07:54:04;17.50;81.60
6724;DHT22;3399;52.530;13.304;2023-05-14T07:56:30;17.50;81.00
6724;DHT22;3399;52.530;13.304;2023-05-14T07:58:56;17.60;81.70
6724;DHT22;3399;52.530;13.304;2023-05-14T08:01:21;17.80;83.80
6724;DHT22;3399;52.530;13.304;2023-05-14T08:03:47;18.00;81.00
6724;DHT22;3399;52.530;13.304;2023-05-14T08:06:13;18.00;79.00
6724;DHT22;3399;52.530;13.304;2023-05-14T08:08:38;18.20;79.80
6724;DHT22;3399;52.530;13.304;2023-05-14T08:11:04;18.30;79.40
6724;DHT22;3399;52.530;13.304;2023-05-14T08:13:29;18.50;80.00
6724;DHT22;3399;52.530;13.304;2023-05-14T08:15:55;18.60;77.20
6724;DHT22;3399;52.530;13.304;2023-05-14T08:18:20;18.80;76.20
6724;DHT22;3399;52.530;13.304;2023-05-14T08:20:46;18.80;75.50
6724;DHT22;3399;52.530;13.304;2023-05-14T08:23:15;18.90;74.90
6724;DHT22;3399;52.530;13.304;2023-05-14T08:25:50;18.80;79.60
6724;DHT22;3399;52.530;13.304;2023-05-14T08:28:19;18.90;75.10
6724;DHT22;3399;52.530;13.304;2023-05-14T08:30:45;18.90;74.40
6724;DHT22;3399;52.530;13.304;2023-05-14T08:33:10;18.90;77.20
6724;DHT22;3399;52.530;13.304;2023-05-14T08:35:39;19.10;74.40
6724;DHT22;3399;52.530;13.304;2023-05-14T08:38:07;19.20;73.50
6724;DHT22;3399;52.530;13.304;2023-05-14T08:40:32;19.20;73.30
6724;DHT22;3399;52.530;13.304;2023-05-14T08:42:59;19.10;71.00
6724;DHT22;3399;52.530;13.304;2023-05-14T08:45:30;19.20;71.00
6724;DHT22;3399;52.530;13.304;2023-05-14T08:47:59;19.40;71.20
6724;DHT22;3399;52.530;13.304;2023-05-14T08:50:26;19.40;70.00
6724;DHT22;3399;52.530;13.304;2023-05-14T08:52:54;19.50;71.40
6724;DHT22;3399;52.530;13.304;2023-05-14T08:55:20;19.70;70.80
6724;DHT22;3399;52.530;13.304;2023-05-14T08:57:45;19.80;68.90
6724;DHT22;3399;52.530;13.304;2023-05-14T09:00:11;19.70;67.40
6724;DHT22;3399;52.530;13.304;2023-05-14T09:02:38;19.60;68.00
6724;DHT22;3399;52.530;13.304;2023-05-14T09:05:05;19.70;68.20
6724;DHT22;3399;52.530;13.304;2023-05-14T09:07:32;19.80;66.20
6724;DHT22;3399;52.530;13.304;2023-05-14T09:09:58;19.80;67.90
6724;DHT22;3399;52.530;13.304;2023-05-14T09:12:23;20.00;67.00
6724;DHT22;3399;52.530;13.304;2023-05-14T09:14:50;20.20;65.80
6724;DHT22;3399;52.530;13.304;2023-05-14T09:17:17;20.20;65.30
6724;DHT22;3399;52.530;13.304;2023-05-14T09:19:44;20.30;64.40
6724;DHT22;3399;52.530;13.304;2023-05-14T09:22:16;20.40;65.40
6724;DHT22;3399;52.530;13.304;2023-05-14T09:24:42;20.30;66.10
6724;DHT22;3399;52.530;13.304;2023-05-14T09:27:13;20.40;64.80
6724;DHT22;3399;52.530;13.304;2023-05-14T09:29:39;20.30;63.10
6724;DHT22;3399;52.530;13.304;2023-05-14T09:32:05;20.60;64.10
6724;DHT22;3399;52.530;13.304;2023-05-14T09:34:33;20.40;62.60
6724;DHT22;3399;52.530;13.304;2023-05-14T09:37:02;20.50;64.40
6724;DHT22;3399;52.530;13.304;2023-05-14T09:39:28;20.60;66.00
6724;DHT22;3399;52.530;13.304;2023-05-14T09:41:55;20.60;63.70
6724;DHT22;3399;52.530;13.304;2023-05-14T09:44:21;20.70;62.20
6724;DHT22;3399;52.530;13.304;2023-05-14T09:46:47;20.70;64.50
6724;DHT22;3399;52.530;13.304;2023-05-14T09:49:13;20.80;60.30
6724;DHT22;3399;52.530;13.304;2023-05-14T09:51:41;20.80;61.60
6724;DHT22;3399;52.530;13.304;2023-05-14T09:54:07;20.80;66.00
6724;DHT22;3399;52.530;13.304;2023-05-14T09:56:34;20.90;62.80
6724;DHT22;3399;52.530;13.304;2023-05-14T09:59:00;21.00;60.60
6724;DHT22;3399;52.530;13.304;2023-05-14T10:01:28;21.00;62.90
6724;DHT22;3399;52.530;13.304;2023-05-14T10:03:54;21.00;59.50
6724;DHT22;3399;52.530;13.304;2023-05-14T10:06:26;21.00;60.40
6724;DHT22;3399;52.530;13.304;2023-05-14T10:08:54;20.90;57.70
6724;DHT22;3399;52.530;13.304;2023-05-14T10:11:23;20.90;57.40
6724;DHT22;3399;52.530;13.304;2023-05-14T10:14:06;20.80;59.30
6724;DHT22;3399;52.530;13.304;2023-05-14T10:16:37;20.50;57.90
6724;DHT22;3399;52.530;13.304;2023-05-14T10:19:08;20.60;58.50
6724;DHT22;3399;52.530;13.304;2023-05-14T10:21:35;20.50;58.40
6724;DHT22;3399;52.530;13.304;2023-05-14T10:24:05;20.40;59.40
6724;DHT22;3399;52.530;13.304;2023-05-14T10:26:33;20.40;61.00
6724;DHT22;3399;52.530;13.304;2023-05-14T10:29:02;20.50;61.30
6724;DHT22;3399;52.530;13.304;2023-05-14T10:32:03;20.50;59.60
6724;DHT22;3399;52.530;13.304;2023-05-14T10:34:37;20.30;59.60
6724;DHT22;3399;52.530;13.304;2023-05-14T10:37:07;20.30;59.90
6724;DHT22;3399;52.530;13.304;2023-05-14T10:39:43;20.30;59.50
6724;DHT22;3399;52.530;13.304;2023-05-14T10:42:41;20.20;61.40
6724;DHT22;3399;52.530;13.304;2023-05-14T10:45:17;20.20;62.00
6724;DHT22;3399;52.530;13.304;2023-05-14T10:47:46;20.00;62.30
6724;DHT22;3399;52.530;13.304;2023-05-14T10:50:15;20.10;62.70
6724;DHT22;3399;52.530;13.304;2023-05-14T10:52:55;20.20;62.90
6724;DHT22;3399;52.530;13.304;2023-05-14T10:55:21;20.40;62.00
6724;DHT22;3399;52.530;13.304;2023-05-14T10:57:48;20.40;59.70
6724;DHT22;3399;52.530;13.304;2023-05-14T11:00:14;20.40;58.20
6724;DHT22;3399;52.530;13.304;2023-05-14T11:02:41;20.30;58.30
6724;DHT22;3399;52.530;13.304;2023-05-14T11:05:15;20.20;60.30
6724;DHT22;3399;52.530;13.304;2023-05-14T11:07:47;20.30;59.00
6724;DHT22;3399;52.530;13.304;2023-05-14T11:10:15;20.20;58.90
6724;DHT22;3399;52.530;13.304;2023-05-14T11:12:42;20.30;58.90
6724;DHT22;3399;52.530;13.304;2023-05-14T11:15:10;20.30;59.00
6724;DHT22;3399;52.530;13.304;2023-05-14T11:17:37;20.30;58.80
6724;DHT22;3399;52.530;13.304;2023-05-14T11:20:03;20.20;59.40
6724;DHT22;3399;52.530;13.304;2023-05-14T11:22:33;20.10;58.00
6724;DHT22;3399;52.530;13.304;2023-05-14T11:24:58;20.20;58.80
6724;DHT22;3399;52.530;13.304;2023-05-14T11:27:24;20.20;58.80
6724;DHT22;3399;52.530;13.304;2023-05-14T11:29:51;20.20;59.00
6724;DHT22;3399;52.530;13.304;2023-05-14T11:32:17;20.30;58.80
6724;DHT22;3399;52.530;13.304;2023-05-14T11:34:45;20.20;60.00
6724;DHT22;3399;52.530;13.304;2023-05-14T11:37:12;20.20;59.50
6724;DHT22;3399;52.530;13.304;2023-05-14T11:39:39;20.00;58.60
6724;DHT22;3399;52.530;13.304;2023-05-14T11:42:11;20.00;62.10
6724;DHT22;3399;52.530;13.304;2023-05-14T11:44:38;20.00;59.40
6724;DHT22;3399;52.530;13.304;2023-05-14T11:47:04;20.10;59.20
6724;DHT22;3399;52.530;13.304;2023-05-14T11:49:30;20.00;59.10
6724;DHT22;3399;52.530;13.304;2023-05-14T11:52:01;20.10;59.00
6724;DHT22;3399;52.530;13.304;2023-05-14T11:54:27;20.10;60.30
6724;DHT22;3399;52.530;13.304;2023-05-14T11:56:57;20.30;60.70
6724;DHT22;3399;52.530;13.304;2023-05-14T11:59:30;20.50;60.60
6724;DHT22;3399;52.530;13.304;2023-05-14T12:02:00;20.50;60.10
6724;DHT22;3399;52.530;13.304;2023-05-14T12:04:27;20.70;59.00
6724;DHT22;3399;52.530;13.304;2023-05-14T12:06:56;20.60;58.00
6724;DHT22;3399;52.530;13.304;2023-05-14T12:09:22;20.60;58.50
6724;DHT22;3399;52.530;13.304;2023-05-14T12:11:49;20.40;58.50
6724;DHT22;3399;52.530;13.304;2023-05-14T12:14:22;20.40;59.40
6724;DHT22;3399;52.530;13.304;2023-05-14T12:16:49;20.50;59.30
6724;DHT22;3399;52.530;13.304;2023-05-14T12:19:18;20.50;61.50
6724;DHT22;3399;52.530;13.304;2023-05-14T12:21:46;20.60;58.60
6724;DHT22;3399;52.530;13.304;2023-05-14T12:24:15;20.60;60.90
6724;DHT22;3399;52.530;13.304;2023-05-14T12:26:45;20.60;61.60
6724;DHT22;3399;52.530;13.304;2023-05-14T12:29:13;20.60;59.70
6724;DHT22;3399;52.530;13.304;2023-05-14T12:31:45;20.60;58.80
6724;DHT22;3399;52.530;13.304;2023-05-14T12:34:11;20.80;59.60
6724;DHT22;3399;52.530;13.304;2023-05-14T12:36:37;21.00;59.00
6724;DHT22;3399;52.530;13.304;2023-05-14T12:39:02;21.00;61.20
6724;DHT22;3399;52.530;13.304;2023-05-14T12:41:29;21.40;59.30
6724;DHT22;3399;52.530;13.304;2023-05-14T12:43:55;21.50;60.20
6724;DHT22;3399;52.530;13.304;2023-05-14T12:46:21;21.60;59.60
6724;DHT22;3399;52.530;13.304;2023-05-14T12:48:47;21.60;61.40
6724;DHT22;3399;52.530;13.304;2023-05-14T12:51:13;21.50;60.90
6724;DHT22;3399;52.530;13.304;2023-05-14T12:53:38;21.50;59.00
6724;DHT22;3399;52.530;13.304;2023-05-14T12:56:05;21.70;59.30
6724;DHT22;3399;52.530;13.304;2023-05-14T12:58:30;21.60;59.50
6724;DHT22;3399;52.530;13.304;2023-05-14T13:00:56;21.60;61.00
6724;DHT22;3399;52.530;13.304;2023-05-14T13:03:21;21.50;58.70
6724;DHT22;3399;52.530;13.304;2023-05-14T13:05:47;21.50;57.40
6724;DHT22;3399;52.530;13.304;2023-05-14T13:08:13;21.50;56.70
6724;DHT22;3399;52.530;13.304;2023-05-14T13:10:43;21.50;56.70
6724;DHT22;3399;52.530;13.304;2023-05-14T13:13:09;21.40;54.80
6724;DHT22;3399;52.530;13.304;2023-05-14T13:15:36;21.50;54.70
6724;DHT22;3399;52.530;13.304;2023-05-14T13:18:02;21.40;56.80
6724;DHT22;3399;52.530;13.304;2023-05-14T13:20:27;21.30;55.50
6724;DHT22;3399;52.530;13.304;2023-05-14T13:22:55;21.50;55.30
6724;DHT22;3399;52.530;13.304;2023-05-14T13:25:21;21.60;54.50
6724;DHT22;3399;52.530;13.304;2023-05-14T13:27:46;21.70;54.90
6724;DHT22;3399;52.530;13.304;2023-05-14T13:30:16;21.60;54.50
6724;DHT22;3399;52.530;13.304;2023-05-14T13:32:41;21.20;54.40
6724;DHT22;3399;52.530;13.304;2023-05-14T13:35:07;21.10;54.40
6724;DHT22;3399;52.530;13.304;2023-05-14T13:37:33;21.20;54.80
6724;DHT22;3399;52.530;13.304;2023-05-14T13:39:58;21.20;54.30
6724;DHT22;3399;52.530;13.304;2023-05-14T13:42:24;21.10;54.70
6724;DHT22;3399;52.530;13.304;2023-05-14T13:44:50;20.80;54.70
6724;DHT22;3399;52.530;13.304;2023-05-14T13:47:15;20.80;55.40
6724;DHT22;3399;52.530;13.304;2023-05-14T13:49:41;20.90;54.40
6724;DHT22;3399;52.530;13.304;2023-05-14T13:52:07;20.80;54.70
6724;DHT22;3399;52.530;13.304;2023-05-14T13:54:32;20.80;54.60
6724;DHT22;3399;52.530;13.304;2023-05-14T13:56:58;20.90;54.80
6724;DHT22;3399;52.530;13.304;2023-05-14T13:59:23;20.80;54.20
6724;DHT22;3399;52.530;13.304;2023-05-14T14:01:49;20.90;54.80
6724;DHT22;3399;52.530;13.304;2023-05-14T14:04:15;21.00;56.30
6724;DHT22;3399;52.530;13.304;2023-05-14T14:06:41;21.00;55.00
6724;DHT22;3399;52.530;13.304;2023-05-14T14:09:07;21.10;57.00
6724;DHT22;3399;52.530;13.304;2023-05-14T14:11:34;21.00;55.70
6724;DHT22;3399;52.530;13.304;2023-05-14T14:13:59;20.90;54.70
6724;DHT22;3399;52.530;13.304;2023-05-14T14:16:25;21.00;54.10
6724;DHT22;3399;52.530;13.304;2023-05-14T14:18:50;21.00;54.50
6724;DHT22;3399;52.530;13.304;2023-05-14T14:21:16;20.90;55.20
6724;DHT22;3399;52.530;13.304;2023-05-14T14:23:44;20.90;55.60
6724;DHT22;3399;52.530;13.304;2023-05-14T14:26:10;20.90;56.20
6724;DHT22;3399;52.530;13.304;2023-05-14T14:28:35;21.00;54.70
6724;DHT22;3399;52.530;13.304;2023-05-14T14:31:01;21.10;54.20
6724;DHT22;3399;52.530;13.304;2023-05-14T14:33:27;21.20;53.90
6724;DHT22;3399;52.530;13.304;2023-05-14T14:35:52;21.10;54.30
6724;DHT22;3399;52.530;13.304;2023-05-14T14:38:18;21.10;54.30
6724;DHT22;3399;52.530;13.304;2023-05-14T14:40:43;21.20;54.00
6724;DHT22;3399;52.530;13.304;2023-05-14T14:43:10;21.20;54.60
6724;DHT22;3399;52.530;13.304;2023-05-14T14:45:35;21.20;54.80
6724;DHT22;3399;52.530;13.304;2023-05-14T14:48:33;21.30;55.40
6724;DHT22;3399;52.530;13.304;2023-05-14T14:51:02;21.40;54.10
6724;DHT22;3399;52.530;13.304;2023-05-14T14:53:28;21.50;54.10
6724;DHT22;3399;52.530;13.304;2023-05-14T14:55:54;21.10;53.30
6724;DHT22;3399;52.530;13.304;2023-05-14T14:58:20;21.00;54.10
6724;DHT22;3399;52.530;13.304;2023-05-14T15:00:46;21.10;54.90
6724;DHT22;3399;52.530;13.304;2023-05-14T15:03:12;21.00;54.10
6724;DHT22;3399;52.530;13.304;2023-05-14T15:05:39;21.00;54.30
6724;DHT22;3399;52.530;13.304;2023-05-14T15:08:04;21.00;54.70
6724;DHT22;3399;52.530;13.304;2023-05-14T15:10:30;20.90;53.80
6724;DHT22;3399;52.530;13.304;2023-05-14T15:12:57;20.90;54.40
6724;DHT22;3399;52.530;13.304;2023-05-14T15:15:26;21.00;53.70
6724;DHT22;3399;52.530;13.304;2023-05-14T15:17:52;21.00;52.20
6724;DHT22;3399;52.530;13.304;2023-05-14T15:20:17;21.00;52.60
6724;DHT22;3399;52.530;13.304;2023-05-14T15:22:43;20.90;51.80
6724;DHT22;3399;52.530;13.304;2023-05-14T15:25:09;20.90;55.30
6724;DHT22;3399;52.530;13.304;2023-05-14T15:27:35;21.00;52.00
6724;DHT22;3399;52.530;13.304;2023-05-14T15:30:01;21.20;52.60
6724;DHT22;3399;52.530;13.304;2023-05-14T15:32:26;21.20;52.60
6724;DHT22;3399;52.530;13.304;2023-05-14T15:34:53;21.20;51.90
6724;DHT22;3399;52.530;13.304;2023-05-14T15:37:25;21.30;52.50
6724;DHT22;3399;52.530;13.304;2023-05-14T15:39:54;21.20;51.90
6724;DHT22;3399;52.530;13.304;2023-05-14T15:42:19;21.30;53.10
6724;DHT22;3399;52.530;13.304;2023-05-14T15:44:45;21.30;52.50